• Join FlightAware (Why Join?)
  • Login
  • US Flag 
12:36AM EST


 

Airport Tracker/Info


-or-


 

Live Flight TrackerFlight Track Log ✈ CSH9261 ✈ 02-Aug-2014 ✈ ZSSS / SHA - ZSAM / XMN

Flight Track Log - Related Links

Times and Time Zones

All times are in EDT time to prevent confusion due to time zone crossing. See the CSH9261 flight status page for this flight to view local times or setup timezone preferences in your user account.

Time Position Orientation Groundspeed Altitude Reporting Facility
EDT Latitude Longitude Course Direction KTS MPH feet Rate Location/Type
06:35AM 30.5896 121.0240 204° Southwest  Level Estimated
06:36AM 30.5135 120.9853 204° Southwest  Level Estimated
06:37AM 30.4374 120.9466 204° Southwest  Level Estimated
06:38AM 30.3613 120.9079 204° Southwest  Level Estimated
06:39AM 30.2851 120.8693 204° Southwest  Level Estimated
06:40AM 30.2090 120.8308 204° Southwest  Level Estimated
06:41AM 30.1329 120.7924 204° Southwest  Level Estimated
06:42AM 30.0567 120.7540 204° Southwest  Level Estimated
06:43AM 29.9805 120.7156 204° Southwest  Level Estimated
06:44AM 29.9043 120.6774 204° Southwest  Level Estimated
06:45AM 29.8281 120.6391 204° Southwest  Level Estimated
06:46AM 29.7519 120.6010 204° Southwest  Level Estimated
06:47AM 29.6757 120.5629 203° Southwest  Level Estimated
06:48AM 29.5995 120.5248 203° Southwest  Level Estimated
06:49AM 29.5233 120.4868 203° Southwest  Level Estimated
06:50AM 29.4470 120.4489 203° Southwest  Level Estimated
06:51AM 29.3708 120.4110 203° Southwest  Level Estimated
06:52AM 29.2945 120.3732 203° Southwest  Level Estimated
06:53AM 29.2182 120.3354 203° Southwest  Level Estimated
06:54AM 29.1419 120.2977 203° Southwest  Level Estimated
06:55AM 29.0656 120.2600 203° Southwest  Level Estimated
06:56AM 28.9893 120.2225 203° Southwest  Level Estimated
06:57AM 28.9130 120.1849 203° Southwest  Level Estimated
06:58AM 28.8367 120.1474 203° Southwest  Level Estimated
06:59AM 28.7603 120.1100 203° Southwest  Level Estimated
07:00AM 28.6840 120.0726 203° Southwest  Level Estimated
07:01AM 28.6076 120.0353 203° Southwest  Level Estimated
07:02AM 28.5312 119.9980 203° Southwest  Level Estimated
07:03AM 28.4549 119.9608 203° Southwest  Level Estimated
07:04AM 28.3785 119.9236 203° Southwest  Level Estimated
07:05AM 28.3021 119.8865 203° Southwest  Level Estimated
07:06AM 28.2257 119.8495 203° Southwest  Level Estimated
07:07AM 28.1492 119.8125 203° Southwest  Level Estimated
07:08AM 28.0728 119.7755 203° Southwest  Level Estimated
07:09AM 27.9964 119.7386 203° Southwest  Level Estimated
07:10AM 27.9199 119.7018 203° Southwest  Level Estimated
07:11AM 27.8435 119.6650 203° Southwest  Level Estimated
07:12AM 27.7670 119.6283 203° Southwest  Level Estimated
07:13AM 27.6905 119.5916 203° Southwest  Level Estimated
07:14AM 27.6140 119.5549 203° Southwest  Level Estimated
07:15AM 27.5375 119.5184 203° Southwest  Level Estimated
07:16AM 27.4610 119.4818 203° Southwest  Level Estimated
07:17AM 27.3845 119.4453 203° Southwest  Level Estimated
07:18AM 27.3079 119.4089 203° Southwest  Level Estimated
07:19AM 27.2314 119.3725 203° Southwest  Level Estimated
07:20AM 27.1549 119.3362 203° Southwest  Level Estimated
07:21AM 27.0783 119.2999 203° Southwest  Level Estimated
07:22AM 27.0017 119.2637 203° Southwest  Level Estimated
07:23AM 26.9252 119.2275 203° Southwest  Level Estimated
07:24AM 26.8486 119.1914 203° Southwest  Level Estimated
07:25AM 26.7720 119.1553 203° Southwest  Level Estimated
07:26AM 26.6954 119.1192 203° Southwest  Level Estimated
07:27AM 26.6188 119.0832 203° Southwest  Level Estimated
07:28AM 26.5421 119.0473 203° Southwest  Level Estimated
07:29AM 26.4655 119.0114 203° Southwest  Level Estimated
07:30AM 26.3889 118.9756 203° Southwest  Level Estimated
07:31AM 26.3122 118.9398 203° Southwest  Level Estimated
07:32AM 26.2356 118.9040 203° Southwest  Level Estimated
07:33AM 26.1589 118.8683 203° Southwest  Level Estimated
07:34AM 26.0822 118.8327 203° Southwest  Level Estimated
07:35AM 26.0055 118.7971 203° Southwest  Level Estimated
07:36AM 25.9289 118.7615 203° Southwest  Level Estimated
07:37AM 25.8521 118.7260 203° Southwest  Level Estimated
07:38AM 25.7754 118.6905 203° Southwest  Level Estimated
07:39AM 25.6987 118.6551 203° Southwest  Level Estimated
07:40AM 25.6220 118.6197 203° Southwest  Level Estimated
07:41AM 25.5453 118.5844 203° Southwest  Level Estimated
07:42AM 25.4685 118.5491 203° Southwest  Level Estimated
07:43AM 25.3918 118.5138 203° Southwest  Level Estimated
07:44AM 25.3150 118.4786 203° Southwest  Level Estimated
07:45AM 25.2382 118.4435 203° Southwest  Level Estimated
07:46AM 25.1615 118.4084 202° Southwest  Level Estimated
07:47AM 25.0847 118.3733 202° Southwest  Level Estimated
07:48AM 25.0079 118.3383 202° Southwest  Level Estimated
07:49AM 24.9311 118.3033 202° Southwest  Level Estimated
07:50AM 24.8543 118.2684 202° Southwest  Level Estimated